createdAt,value
2017-07-01T00:09:23.806Z,0
2017-07-01T00:19:38.887Z,0
2017-07-01T00:29:53.769Z,0
2017-07-01T00:40:08.357Z,0
2017-07-01T00:50:22.900Z,0
2017-07-01T01:00:37.582Z,0
2017-07-01T01:10:52.025Z,0
2017-07-01T01:21:06.811Z,0
2017-07-01T01:31:22.092Z,0
2017-07-01T01:41:37.628Z,0
2017-07-01T01:51:52.301Z,0
2017-07-01T02:02:07.220Z,0
2017-07-01T02:12:22.415Z,0
2017-07-01T02:22:36.785Z,0
2017-07-01T02:32:50.861Z,0
2017-07-01T02:43:05.461Z,0
2017-07-01T02:53:20.187Z,0
2017-07-01T03:03:35.591Z,0
2017-07-01T03:13:50.961Z,0
2017-07-01T03:24:04.885Z,5
2017-07-01T03:34:20.488Z,10
2017-07-01T03:44:34.251Z,25
2017-07-01T03:54:49.068Z,25
2017-07-01T04:05:04.134Z,35
2017-07-01T04:15:18.436Z,50
2017-07-01T04:25:33.158Z,35
2017-07-01T04:35:47.901Z,25
2017-07-01T04:46:02.720Z,60
2017-07-01T04:56:16.776Z,60
2017-07-01T05:06:30.684Z,145
2017-07-01T05:16:44.731Z,125
2017-07-01T05:26:59.346Z,55
2017-07-01T05:37:14.078Z,80
2017-07-01T05:47:29.370Z,130
2017-07-01T05:57:43.404Z,105
2017-07-01T06:07:58.228Z,65
2017-07-01T06:18:12.002Z,155
2017-07-01T06:28:27.062Z,280
2017-07-01T06:38:41.359Z,205
2017-07-01T06:48:56.357Z,135
2017-07-01T06:59:11.835Z,110
2017-07-01T07:09:26.202Z,350
2017-07-01T07:19:40.666Z,375
2017-07-01T07:29:55.001Z,325
2017-07-01T07:40:08.798Z,305
2017-07-01T07:50:22.837Z,605
2017-07-01T08:00:37.583Z,805
2017-07-01T08:10:51.614Z,715
2017-07-01T08:21:06.878Z,530
2017-07-01T08:31:21.294Z,420
2017-07-01T08:41:35.856Z,530
2017-07-01T08:51:51.184Z,235
2017-07-01T09:02:05.225Z,525
2017-07-01T09:12:19.936Z,300
2017-07-01T09:22:34.432Z,375
2017-07-01T09:32:48.652Z,470
2017-07-01T09:43:03.645Z,435
2017-07-01T09:53:18.096Z,385
2017-07-01T10:03:32.639Z,665
2017-07-01T10:13:46.905Z,690
2017-07-01T10:24:02.128Z,605
2017-07-01T10:34:15.967Z,375
2017-07-01T10:44:31.544Z,225
2017-07-01T10:54:45.687Z,265
2017-07-01T11:05:00.078Z,450
2017-07-01T11:15:14.845Z,515
2017-07-01T11:25:29.699Z,960
2017-07-01T11:35:44.960Z,595
2017-07-01T11:45:59.364Z,390
2017-07-01T11:56:14.667Z,615
2017-07-01T12:06:29.939Z,675
2017-07-01T12:16:44.802Z,340
2017-07-01T12:27:00.427Z,1030
2017-07-01T12:37:14.598Z,340
2017-07-01T12:47:28.473Z,230
2017-07-01T12:57:44.076Z,320
2017-07-01T13:07:58.818Z,745
2017-07-01T13:18:12.929Z,475
2017-07-01T13:28:27.897Z,120
2017-07-01T13:38:41.987Z,415
2017-07-01T13:48:57.434Z,325
2017-07-01T13:59:12.653Z,130
2017-07-01T14:09:26.911Z,200
2017-07-01T14:19:41.308Z,240
2017-07-01T14:29:56.452Z,280
2017-07-01T14:40:12.287Z,280
2017-07-01T14:50:27.251Z,775
2017-07-01T15:00:41.303Z,140
2017-07-01T15:10:56.503Z,305
2017-07-01T15:21:11.883Z,435
2017-07-01T15:31:25.698Z,340
2017-07-01T15:41:40.867Z,385
2017-07-01T15:51:56.499Z,820
2017-07-01T16:02:12.212Z,1035
2017-07-01T16:12:26.340Z,375
2017-07-01T16:22:41.174Z,685
2017-07-01T16:32:55.461Z,530
2017-07-01T16:43:09.573Z,690
2017-07-01T16:53:25.342Z,500
2017-07-01T17:03:40.371Z,505
2017-07-01T17:13:56.233Z,335
2017-07-01T17:24:10.292Z,325
2017-07-01T17:34:24.154Z,320
2017-07-01T17:44:39.021Z,315
2017-07-01T17:54:54.559Z,215
2017-07-01T18:05:10.105Z,205
2017-07-01T18:15:24.261Z,165
2017-07-01T18:25:39.131Z,195
2017-07-01T18:35:54.156Z,150
2017-07-01T18:46:09.653Z,160
2017-07-01T18:56:24.019Z,115
2017-07-01T19:06:39.072Z,85
2017-07-01T19:16:53.166Z,65
2017-07-01T19:27:07.293Z,45
2017-07-01T19:37:22.582Z,25
2017-07-01T19:47:37.023Z,15
2017-07-01T19:57:51.528Z,5
2017-07-01T20:08:05.317Z,0
2017-07-01T20:18:20.368Z,0
2017-07-01T20:28:34.764Z,0
2017-07-01T20:38:49.987Z,0
2017-07-01T20:49:03.782Z,0
2017-07-01T20:59:18.652Z,0
2017-07-01T21:09:33.673Z,0
2017-07-01T21:19:48.459Z,0
2017-07-01T21:30:03.240Z,0
2017-07-01T21:40:17.958Z,0
2017-07-01T21:50:33.059Z,0
2017-07-01T22:00:46.871Z,0
2017-07-01T22:11:02.447Z,0
2017-07-01T22:21:17.789Z,0
2017-07-01T22:31:33.527Z,0
2017-07-01T22:41:48.435Z,0
2017-07-01T22:52:04.110Z,0
2017-07-01T23:02:19.311Z,0
2017-07-01T23:12:33.854Z,0
2017-07-01T23:22:48.558Z,0
2017-07-01T23:33:03.205Z,0
2017-07-01T23:43:17.240Z,0
2017-07-01T23:53:32.965Z,0
